createdAt,value
2019-03-16T00:01:22.884Z,4.70
2019-03-16T00:03:52.331Z,4.70
2019-03-16T00:06:21.800Z,4.80
2019-03-16T00:09:07.313Z,4.90
2019-03-16T00:11:36.810Z,4.90
2019-03-16T00:14:15.825Z,4.90
2019-03-16T00:16:45.355Z,4.90
2019-03-16T00:19:14.781Z,4.90
2019-03-16T00:21:44.257Z,5.00
2019-03-16T00:24:13.757Z,5.00
2019-03-16T00:26:43.243Z,5.00
2019-03-16T00:29:14.411Z,4.90
2019-03-16T00:31:43.898Z,4.80
2019-03-16T00:34:13.136Z,4.80
2019-03-16T00:36:42.496Z,4.90
2019-03-16T00:39:11.656Z,4.90
2019-03-16T00:41:43.144Z,4.90
2019-03-16T00:44:14.307Z,4.80
2019-03-16T00:46:47.525Z,4.70
2019-03-16T00:49:16.968Z,4.70
2019-03-16T00:51:46.343Z,4.70
2019-03-16T00:54:15.583Z,4.60
2019-03-16T00:56:44.736Z,4.60
2019-03-16T00:59:15.033Z,4.70
2019-03-16T01:01:44.517Z,4.80
2019-03-16T01:04:14.003Z,4.70
2019-03-16T01:06:43.538Z,4.60
2019-03-16T01:09:13.845Z,4.60
2019-03-16T01:11:42.995Z,4.50
2019-03-16T01:14:12.472Z,4.40
2019-03-16T01:16:41.942Z,4.30
2019-03-16T01:19:11.167Z,4.30
2019-03-16T01:21:40.583Z,4.30
2019-03-16T01:24:10.055Z,4.40
2019-03-16T01:26:39.268Z,4.40
2019-03-16T01:29:08.767Z,4.40
2019-03-16T01:31:38.145Z,4.30
2019-03-16T01:34:07.369Z,4.30
2019-03-16T01:36:36.813Z,4.20
2019-03-16T01:39:07.912Z,4.20
2019-03-16T01:41:37.411Z,4.30
2019-03-16T01:44:06.654Z,4.30
2019-03-16T01:46:36.003Z,4.30
2019-03-16T01:49:05.234Z,4.40
2019-03-16T01:51:34.724Z,4.40
2019-03-16T01:54:04.254Z,4.40
2019-03-16T01:56:33.629Z,4.50
2019-03-16T01:59:03.182Z,4.60
2019-03-16T02:01:32.630Z,4.80
2019-03-16T02:04:01.903Z,5.00
2019-03-16T02:06:31.267Z,5.10
2019-03-16T02:09:00.735Z,5.20
2019-03-16T02:11:29.899Z,5.20
2019-03-16T02:13:59.395Z,5.30
2019-03-16T02:16:29.017Z,5.30
2019-03-16T02:19:05.090Z,5.30
2019-03-16T02:21:39.094Z,5.40
2019-03-16T02:24:10.909Z,5.50
2019-03-16T02:26:40.375Z,5.50
2019-03-16T02:29:09.533Z,5.50
2019-03-16T02:31:39.821Z,5.70
2019-03-16T02:34:14.246Z,5.90
2019-03-16T02:36:51.983Z,5.90
2019-03-16T02:39:21.501Z,5.90
2019-03-16T02:41:50.930Z,5.90
2019-03-16T02:44:20.479Z,6.00
2019-03-16T02:46:49.934Z,5.90
2019-03-16T02:49:19.437Z,5.90
2019-03-16T02:51:48.985Z,5.80
2019-03-16T02:54:18.473Z,5.90
2019-03-16T02:56:48.782Z,5.90
2019-03-16T02:59:18.342Z,5.90
2019-03-16T03:01:47.787Z,6.00
2019-03-16T03:04:17.371Z,6.00
2019-03-16T03:06:47.006Z,5.90
2019-03-16T03:09:16.309Z,6.00
2019-03-16T03:11:46.036Z,6.00
2019-03-16T03:14:15.343Z,6.00
2019-03-16T03:16:44.511Z,6.00
2019-03-16T03:19:15.228Z,5.90
2019-03-16T03:21:45.759Z,5.90
2019-03-16T03:24:14.983Z,5.90
2019-03-16T03:26:44.138Z,5.90
2019-03-16T03:29:13.603Z,5.90
2019-03-16T03:31:43.138Z,5.90
2019-03-16T03:34:12.582Z,5.80
2019-03-16T03:36:41.771Z,5.80
2019-03-16T03:39:11.183Z,5.80
2019-03-16T03:41:40.334Z,5.80
2019-03-16T03:44:09.913Z,5.80
2019-03-16T03:46:39.357Z,5.80
2019-03-16T03:49:08.823Z,5.80
2019-03-16T03:51:38.357Z,5.80
2019-03-16T03:54:07.821Z,5.80
2019-03-16T03:56:37.318Z,5.70
2019-03-16T03:59:06.920Z,5.70
2019-03-16T04:01:36.394Z,5.70
2019-03-16T04:04:15.455Z,5.70
2019-03-16T04:06:37.075Z,5.70
2019-03-16T04:09:08.121Z,5.70
2019-03-16T04:11:37.284Z,5.60
2019-03-16T04:14:06.750Z,5.60
2019-03-16T04:16:36.231Z,5.60
2019-03-16T04:19:05.411Z,5.60
2019-03-16T04:21:34.851Z,5.60
2019-03-16T04:24:04.828Z,5.60
2019-03-16T04:26:35.364Z,5.60
2019-03-16T04:29:05.085Z,5.50
2019-03-16T04:31:34.477Z,5.50
2019-03-16T04:34:03.648Z,5.50
2019-03-16T04:36:32.906Z,5.50
2019-03-16T04:39:02.185Z,5.40
2019-03-16T04:41:31.681Z,5.30
2019-03-16T04:44:02.036Z,5.40
2019-03-16T04:46:31.507Z,5.40
2019-03-16T04:49:01.447Z,5.40
2019-03-16T04:51:30.965Z,5.40
2019-03-16T04:54:00.459Z,5.40
2019-03-16T04:56:30.017Z,5.40
2019-03-16T04:58:59.555Z,5.40
2019-03-16T05:01:28.946Z,5.40
2019-03-16T05:03:58.091Z,5.40
2019-03-16T05:06:27.633Z,5.40
2019-03-16T05:08:57.490Z,5.40
2019-03-16T05:11:26.972Z,5.40
2019-03-16T05:13:56.179Z,5.40
2019-03-16T05:16:25.578Z,5.40
2019-03-16T05:18:54.740Z,5.40
2019-03-16T05:21:24.241Z,5.40
2019-03-16T05:23:53.690Z,5.50
2019-03-16T05:26:24.000Z,5.40
2019-03-16T05:28:53.193Z,5.40
2019-03-16T05:31:22.610Z,5.30
2019-03-16T05:33:51.764Z,5.30
2019-03-16T05:36:21.286Z,5.20
2019-03-16T05:38:50.721Z,5.20
2019-03-16T05:41:19.885Z,5.30
2019-03-16T05:43:49.362Z,5.30
2019-03-16T05:46:18.894Z,5.20
2019-03-16T05:48:48.395Z,5.20
2019-03-16T05:51:17.853Z,5.20
2019-03-16T05:53:50.200Z,5.20
2019-03-16T05:56:21.358Z,5.20
2019-03-16T05:58:52.518Z,5.10
2019-03-16T06:01:21.671Z,5.10
2019-03-16T06:03:52.008Z,4.90
2019-03-16T06:06:21.469Z,4.90
2019-03-16T06:08:50.917Z,4.90
2019-03-16T06:11:20.158Z,4.80
2019-03-16T06:13:49.560Z,4.90
2019-03-16T06:16:19.033Z,4.90
2019-03-16T06:18:48.188Z,4.90
2019-03-16T06:21:17.671Z,4.90
2019-03-16T06:23:47.974Z,4.90
2019-03-16T06:26:17.480Z,4.90
2019-03-16T06:28:47.037Z,4.90
2019-03-16T06:31:16.482Z,4.90
2019-03-16T06:33:47.074Z,4.90
2019-03-16T06:36:16.348Z,5.00
2019-03-16T06:38:45.681Z,5.00
2019-03-16T06:41:14.913Z,4.90
2019-03-16T06:43:44.471Z,4.90
2019-03-16T06:46:15.553Z,4.80
2019-03-16T06:48:44.721Z,4.70
2019-03-16T06:51:15.021Z,4.70
2019-03-16T06:53:44.549Z,4.60
2019-03-16T06:56:14.803Z,4.60
2019-03-16T06:58:50.567Z,4.70
2019-03-16T07:01:19.988Z,4.70
2019-03-16T07:03:49.474Z,4.80
2019-03-16T07:06:19.023Z,4.80
2019-03-16T07:08:48.468Z,4.90
2019-03-16T07:11:17.694Z,5.00
2019-03-16T07:13:47.979Z,5.00
2019-03-16T07:16:17.434Z,5.10
2019-03-16T07:18:58.276Z,5.00
2019-03-16T07:21:19.318Z,5.20
2019-03-16T07:23:53.694Z,5.10
2019-03-16T07:26:22.855Z,5.30
2019-03-16T07:28:52.342Z,5.40
2019-03-16T07:31:21.829Z,5.40
2019-03-16T07:33:53.378Z,5.30
2019-03-16T07:36:22.904Z,5.30
2019-03-16T07:38:53.238Z,5.70
2019-03-16T07:41:22.718Z,6.00
2019-03-16T07:43:53.043Z,6.20
2019-03-16T07:46:22.205Z,6.30
2019-03-16T07:48:51.644Z,6.20
2019-03-16T07:51:21.176Z,6.00
2019-03-16T07:53:50.704Z,5.70
2019-03-16T07:56:20.147Z,5.80
2019-03-16T07:58:49.353Z,5.70
2019-03-16T08:01:18.762Z,5.70
2019-03-16T08:03:47.916Z,5.70
2019-03-16T08:06:17.374Z,5.80
2019-03-16T08:08:46.914Z,5.70
2019-03-16T08:11:16.350Z,5.70
2019-03-16T08:13:45.723Z,5.60
2019-03-16T08:16:14.958Z,5.80
2019-03-16T08:18:44.495Z,5.80
2019-03-16T08:21:13.993Z,5.70
2019-03-16T08:23:43.472Z,5.70
2019-03-16T08:26:12.645Z,5.70
2019-03-16T08:28:42.121Z,5.70
2019-03-16T08:31:11.612Z,5.70
2019-03-16T08:33:41.080Z,5.80
2019-03-16T08:36:10.283Z,5.70
2019-03-16T08:38:39.679Z,5.70
2019-03-16T08:41:08.844Z,5.60
2019-03-16T08:43:38.339Z,5.50
2019-03-16T08:46:07.851Z,5.70
2019-03-16T08:48:37.308Z,5.70
2019-03-16T08:51:06.494Z,5.60
2019-03-16T08:53:37.063Z,5.60
2019-03-16T08:56:06.288Z,5.50
2019-03-16T08:58:35.767Z,5.50
2019-03-16T09:01:06.041Z,5.50
2019-03-16T09:03:43.616Z,5.50
2019-03-16T09:06:06.333Z,5.60
2019-03-16T09:08:35.795Z,5.70
2019-03-16T09:11:06.139Z,5.70
2019-03-16T09:13:35.334Z,5.80
2019-03-16T09:16:04.716Z,5.80
2019-03-16T09:18:33.875Z,5.90
2019-03-16T09:21:03.388Z,5.90
2019-03-16T09:23:32.828Z,6.00
2019-03-16T09:26:03.318Z,6.20
2019-03-16T09:28:32.691Z,6.50
2019-03-16T09:31:04.069Z,6.40
2019-03-16T09:33:33.363Z,6.50
2019-03-16T09:36:02.854Z,6.60
2019-03-16T09:38:32.316Z,6.50
2019-03-16T09:41:01.474Z,6.40
2019-03-16T09:43:30.995Z,6.60
2019-03-16T09:46:00.457Z,6.50
2019-03-16T09:48:30.001Z,6.60
2019-03-16T09:51:02.005Z,6.70
2019-03-16T09:53:32.226Z,6.60
2019-03-16T09:56:01.719Z,6.60
2019-03-16T09:58:31.721Z,6.70
2019-03-16T10:01:01.556Z,6.70
2019-03-16T10:03:31.860Z,6.60
2019-03-16T10:06:04.022Z,6.50
2019-03-16T10:08:33.353Z,6.50
2019-03-16T10:11:02.514Z,6.50
2019-03-16T10:13:31.760Z,6.50
2019-03-16T10:16:01.041Z,6.40
2019-03-16T10:18:30.201Z,6.40
2019-03-16T10:21:00.497Z,6.40
2019-03-16T10:23:29.972Z,6.40
2019-03-16T10:26:00.298Z,6.40
2019-03-16T10:28:29.485Z,6.50
2019-03-16T10:30:58.628Z,6.50
2019-03-16T10:33:27.786Z,6.50
2019-03-16T10:35:56.963Z,6.40
2019-03-16T10:38:26.183Z,6.50
2019-03-16T10:40:55.350Z,6.50
2019-03-16T10:43:24.541Z,6.50
2019-03-16T10:45:54.705Z,6.50
2019-03-16T10:48:24.767Z,6.50
2019-03-16T10:50:53.971Z,6.60
2019-03-16T10:53:23.130Z,6.60
2019-03-16T10:55:58.003Z,6.60
2019-03-16T10:58:27.223Z,6.60
2019-03-16T11:00:56.445Z,6.60
2019-03-16T11:03:31.616Z,6.60
2019-03-16T11:06:00.794Z,6.70
2019-03-16T11:08:32.999Z,6.70
2019-03-16T11:11:04.104Z,6.80
2019-03-16T11:13:33.282Z,6.80
2019-03-16T11:16:02.432Z,6.80
2019-03-16T11:18:40.716Z,6.90
2019-03-16T11:21:10.148Z,6.90
2019-03-16T11:23:39.373Z,6.90
2019-03-16T11:26:08.633Z,6.90
2019-03-16T11:28:37.806Z,6.90
2019-03-16T11:31:07.007Z,6.90
2019-03-16T11:33:43.007Z,6.90
2019-03-16T11:36:12.169Z,6.90
2019-03-16T11:38:49.573Z,7.00
2019-03-16T11:41:18.721Z,7.00
2019-03-16T11:43:47.875Z,7.00
2019-03-16T11:46:17.172Z,7.10
2019-03-16T11:48:46.535Z,7.00
2019-03-16T11:51:15.793Z,7.00
2019-03-16T11:53:45.062Z,7.00
2019-03-16T11:56:18.273Z,7.00
2019-03-16T11:58:47.657Z,7.10
2019-03-16T12:01:16.851Z,7.10
2019-03-16T12:03:51.762Z,7.20
2019-03-16T12:06:21.006Z,7.30
2019-03-16T12:08:51.208Z,7.40
2019-03-16T12:11:20.430Z,7.50
2019-03-16T12:13:57.791Z,7.60
2019-03-16T12:16:28.104Z,7.70
2019-03-16T12:18:57.784Z,7.60
2019-03-16T12:21:27.154Z,7.60
2019-03-16T12:23:58.265Z,7.70
2019-03-16T12:26:28.627Z,7.70
2019-03-16T12:28:58.937Z,7.60
2019-03-16T12:31:29.241Z,7.60
2019-03-16T12:34:00.360Z,7.60
2019-03-16T12:36:30.742Z,7.60
2019-03-16T12:39:00.191Z,7.70
2019-03-16T12:41:35.469Z,7.80
2019-03-16T12:44:04.711Z,7.80
2019-03-16T12:46:34.072Z,8.00
2019-03-16T12:49:03.718Z,8.10
2019-03-16T12:51:33.037Z,8.10
2019-03-16T12:54:02.567Z,8.10
2019-03-16T12:56:34.220Z,7.90
2019-03-16T12:59:10.736Z,7.90
2019-03-16T13:01:45.734Z,7.90
2019-03-16T13:04:16.150Z,7.90
2019-03-16T13:06:46.725Z,8.00
2019-03-16T13:09:16.236Z,8.00
2019-03-16T13:11:50.131Z,8.00
2019-03-16T13:14:29.375Z,7.90
2019-03-16T13:16:59.665Z,7.90
2019-03-16T13:19:29.958Z,8.00
2019-03-16T13:22:00.318Z,8.10
2019-03-16T13:24:29.819Z,8.10
2019-03-16T13:26:58.976Z,8.10
2019-03-16T13:29:28.428Z,8.10
2019-03-16T13:31:58.009Z,8.20
2019-03-16T13:34:29.457Z,8.10
2019-03-16T13:36:58.685Z,8.20
2019-03-16T13:39:28.065Z,8.20
2019-03-16T13:41:57.220Z,8.30
2019-03-16T13:44:26.540Z,8.30
2019-03-16T13:46:57.038Z,8.30
2019-03-16T13:49:26.207Z,8.30
2019-03-16T13:51:55.665Z,8.40
2019-03-16T13:54:25.506Z,8.50
2019-03-16T13:57:01.703Z,8.70
2019-03-16T13:59:33.603Z,8.70
2019-03-16T14:02:02.828Z,8.80
2019-03-16T14:04:33.494Z,9.00
2019-03-16T14:07:02.682Z,9.00
2019-03-16T14:09:31.971Z,9.00
2019-03-16T14:12:01.914Z,8.90
2019-03-16T14:14:31.371Z,8.70
2019-03-16T14:17:00.531Z,8.60
2019-03-16T14:19:29.783Z,8.50
2019-03-16T14:21:59.064Z,8.50
2019-03-16T14:24:28.221Z,8.40
2019-03-16T14:26:57.693Z,8.30
2019-03-16T14:29:27.162Z,8.50
2019-03-16T14:31:56.680Z,8.60
2019-03-16T14:34:26.235Z,8.60
2019-03-16T14:36:57.605Z,8.20
2019-03-16T14:39:27.326Z,7.90
2019-03-16T14:41:56.803Z,7.90
2019-03-16T14:44:29.137Z,7.80
2019-03-16T14:46:58.367Z,7.80
2019-03-16T14:49:33.579Z,7.70
2019-03-16T14:52:03.865Z,7.70
2019-03-16T14:54:34.145Z,7.70
2019-03-16T14:57:06.514Z,7.80
2019-03-16T14:59:35.977Z,7.80
2019-03-16T15:02:06.311Z,7.70
2019-03-16T15:04:41.591Z,7.80
2019-03-16T15:07:11.871Z,7.70
2019-03-16T15:09:49.673Z,7.80
2019-03-16T15:12:19.075Z,7.80
2019-03-16T15:14:48.607Z,7.70
2019-03-16T15:17:19.837Z,7.70
2019-03-16T15:19:49.248Z,7.80
2019-03-16T15:22:21.288Z,7.80
2019-03-16T15:24:56.209Z,7.80
2019-03-16T15:27:26.377Z,7.50
2019-03-16T15:29:55.857Z,7.30
2019-03-16T15:32:25.415Z,7.20
2019-03-16T15:34:54.702Z,7.20
2019-03-16T15:37:26.017Z,7.20
2019-03-16T15:39:55.198Z,7.20
2019-03-16T15:42:24.622Z,7.20
2019-03-16T15:44:53.771Z,7.20
2019-03-16T15:47:23.238Z,7.10
2019-03-16T15:49:52.736Z,7.10
2019-03-16T15:52:22.300Z,7.10
2019-03-16T15:54:52.626Z,7.10
2019-03-16T15:57:22.063Z,7.10
2019-03-16T15:59:51.559Z,7.10
2019-03-16T16:02:21.924Z,7.10
2019-03-16T16:04:51.492Z,7.10
2019-03-16T16:07:23.109Z,7.20
2019-03-16T16:09:52.502Z,7.20
2019-03-16T16:12:25.250Z,7.20
2019-03-16T16:14:54.799Z,7.20
2019-03-16T16:17:30.238Z,7.20
2019-03-16T16:19:59.495Z,7.10
2019-03-16T16:22:35.121Z,7.10
2019-03-16T16:25:06.743Z,7.10
2019-03-16T16:27:38.808Z,7.00
2019-03-16T16:30:14.074Z,6.90
2019-03-16T16:32:43.625Z,7.00
2019-03-16T16:35:14.120Z,6.90
2019-03-16T16:37:43.802Z,6.90
2019-03-16T16:40:14.778Z,6.90
2019-03-16T16:42:44.008Z,6.80
2019-03-16T16:45:15.417Z,6.80
2019-03-16T16:47:45.963Z,6.80
2019-03-16T16:50:20.131Z,6.70
2019-03-16T16:52:49.766Z,6.80
2019-03-16T16:55:19.386Z,6.80
2019-03-16T16:57:54.546Z,6.80
2019-03-16T17:00:25.558Z,6.80
2019-03-16T17:02:55.158Z,6.80
2019-03-16T17:05:24.751Z,6.80
2019-03-16T17:07:54.084Z,6.80
2019-03-16T17:10:23.602Z,6.80
2019-03-16T17:12:54.847Z,6.80
2019-03-16T17:15:25.140Z,6.70
2019-03-16T17:17:55.457Z,6.70
2019-03-16T17:20:30.658Z,6.70
2019-03-16T17:23:00.179Z,6.70
2019-03-16T17:25:29.705Z,6.60
2019-03-16T17:27:58.991Z,6.60
2019-03-16T17:30:33.551Z,6.50
2019-03-16T17:33:02.730Z,6.50
2019-03-16T17:35:33.018Z,6.50
2019-03-16T17:38:03.315Z,6.50
2019-03-16T17:40:32.484Z,6.50
2019-03-16T17:43:03.327Z,6.50
2019-03-16T17:45:32.697Z,6.50
2019-03-16T17:48:01.855Z,6.50
2019-03-16T17:50:35.019Z,6.50
2019-03-16T17:53:04.451Z,6.40
2019-03-16T17:55:34.814Z,6.40
2019-03-16T17:58:04.275Z,6.40
2019-03-16T18:00:33.750Z,6.30
2019-03-16T18:03:02.949Z,6.40
2019-03-16T18:05:32.428Z,6.40
2019-03-16T18:08:01.875Z,6.40
2019-03-16T18:10:31.085Z,6.40
2019-03-16T18:13:00.305Z,6.40
2019-03-16T18:15:29.587Z,6.30
2019-03-16T18:17:59.102Z,6.30
2019-03-16T18:20:28.587Z,6.30
2019-03-16T18:22:57.755Z,6.20
2019-03-16T18:25:27.215Z,6.20
2019-03-16T18:27:58.329Z,6.10
2019-03-16T18:30:36.141Z,6.10
2019-03-16T18:33:10.125Z,6.00
2019-03-16T18:35:40.800Z,5.90
2019-03-16T18:38:10.269Z,5.90
2019-03-16T18:40:40.200Z,5.80
2019-03-16T18:43:09.738Z,5.80
2019-03-16T18:45:39.198Z,5.80
2019-03-16T18:48:08.439Z,5.70
2019-03-16T18:50:38.722Z,5.60
2019-03-16T18:53:08.942Z,5.60
2019-03-16T18:55:38.109Z,5.50
2019-03-16T18:58:07.629Z,5.40
2019-03-16T19:00:37.071Z,5.40
2019-03-16T19:03:06.631Z,5.30
2019-03-16T19:05:36.092Z,5.30
2019-03-16T19:08:05.581Z,5.20
2019-03-16T19:10:34.739Z,5.20
2019-03-16T19:13:04.364Z,5.20
2019-03-16T19:15:33.670Z,5.10
2019-03-16T19:18:02.820Z,5.10
2019-03-16T19:20:32.302Z,5.00
2019-03-16T19:23:01.909Z,5.00
2019-03-16T19:25:32.513Z,5.00
2019-03-16T19:28:01.738Z,4.90
2019-03-16T19:30:31.124Z,4.90
2019-03-16T19:33:00.629Z,4.80
2019-03-16T19:35:35.914Z,4.80
2019-03-16T19:38:05.428Z,4.70
2019-03-16T19:40:34.871Z,4.70
2019-03-16T19:43:04.208Z,4.70
2019-03-16T19:45:34.910Z,4.70
2019-03-16T19:48:04.195Z,4.60
2019-03-16T19:50:33.572Z,4.60
2019-03-16T19:53:04.475Z,4.50
2019-03-16T19:55:34.019Z,4.40
2019-03-16T19:58:04.408Z,4.40
2019-03-16T20:00:34.629Z,4.40
2019-03-16T20:03:04.988Z,4.40
2019-03-16T20:05:34.471Z,4.40
2019-03-16T20:08:03.933Z,4.40
2019-03-16T20:10:33.267Z,4.40
2019-03-16T20:13:02.976Z,4.30
2019-03-16T20:15:32.543Z,4.30
2019-03-16T20:18:02.888Z,4.30
2019-03-16T20:23:21.899Z,4.20
2019-03-16T20:25:52.968Z,4.20
2019-03-16T20:28:22.518Z,4.20
2019-03-16T20:30:52.124Z,4.30
2019-03-16T20:33:21.561Z,4.30
2019-03-16T20:35:51.341Z,4.30
2019-03-16T20:38:20.531Z,4.40
2019-03-16T20:40:50.580Z,4.30
2019-03-16T20:43:20.354Z,4.30
2019-03-16T20:45:51.385Z,4.30
2019-03-16T20:48:20.631Z,4.30
2019-03-16T20:50:49.864Z,4.30
2019-03-16T20:53:20.056Z,4.20
2019-03-16T20:55:54.958Z,4.30
2019-03-16T20:58:24.373Z,4.30
2019-03-16T21:00:53.882Z,4.30
2019-03-16T21:03:23.443Z,4.40
2019-03-16T21:05:53.703Z,4.40
2019-03-16T21:08:22.857Z,4.30
2019-03-16T21:10:52.310Z,4.40
2019-03-16T21:13:21.819Z,4.40
2019-03-16T21:15:52.279Z,4.50
2019-03-16T21:18:21.659Z,4.50
2019-03-16T21:20:51.841Z,4.60
2019-03-16T21:23:21.081Z,4.60
2019-03-16T21:25:50.584Z,4.60
2019-03-16T21:28:20.142Z,4.60
2019-03-16T21:30:49.626Z,4.60
2019-03-16T21:33:29.067Z,4.60
2019-03-16T21:35:50.496Z,4.60
2019-03-16T21:38:19.716Z,4.60
2019-03-16T21:40:48.938Z,4.60
2019-03-16T21:43:18.320Z,4.60
2019-03-16T21:45:47.611Z,4.50
2019-03-16T21:48:17.170Z,4.50
2019-03-16T21:50:46.337Z,4.40
2019-03-16T21:53:15.571Z,4.40
2019-03-16T21:55:45.068Z,4.30
2019-03-16T21:58:16.167Z,4.30
2019-03-16T22:00:45.337Z,4.30
2019-03-16T22:03:16.884Z,4.30
2019-03-16T22:05:47.159Z,4.30
2019-03-16T22:08:16.319Z,4.20
2019-03-16T22:10:46.680Z,4.20
2019-03-16T22:13:16.058Z,4.20
2019-03-16T22:15:45.221Z,4.20
2019-03-16T22:18:15.117Z,4.20
2019-03-16T22:20:44.584Z,4.30
2019-03-16T22:23:13.761Z,4.30
2019-03-16T22:25:43.236Z,4.30
2019-03-16T22:28:13.101Z,4.20
2019-03-16T22:30:42.619Z,4.20
2019-03-16T22:33:12.228Z,4.30
2019-03-16T22:35:42.566Z,4.30
2019-03-16T22:38:11.957Z,4.40
2019-03-16T22:40:41.144Z,4.50
2019-03-16T22:43:10.538Z,4.60
2019-03-16T22:45:39.706Z,4.70
2019-03-16T22:48:09.232Z,4.70
2019-03-16T22:50:38.652Z,4.80
2019-03-16T22:53:07.869Z,4.80
2019-03-16T22:55:37.281Z,4.80
2019-03-16T22:58:06.767Z,4.90
2019-03-16T23:00:46.928Z,4.90
2019-03-16T23:03:16.825Z,4.90
2019-03-16T23:05:48.441Z,5.00
2019-03-16T23:08:17.936Z,5.00
2019-03-16T23:10:47.798Z,5.00
2019-03-16T23:13:16.966Z,5.10
2019-03-16T23:15:46.797Z,5.00
2019-03-16T23:18:16.319Z,5.10
2019-03-16T23:20:47.549Z,5.00
2019-03-16T23:23:17.002Z,5.00
2019-03-16T23:25:46.627Z,5.10
2019-03-16T23:28:15.807Z,5.10
2019-03-16T23:30:45.117Z,5.10
2019-03-16T23:33:14.657Z,5.00
2019-03-16T23:35:44.102Z,5.00
2019-03-16T23:38:13.604Z,5.10
2019-03-16T23:40:43.907Z,5.00
2019-03-16T23:43:18.430Z,5.00
2019-03-16T23:45:47.916Z,5.10
2019-03-16T23:48:17.513Z,5.10
2019-03-16T23:50:46.891Z,5.10
2019-03-16T23:53:16.349Z,5.10
2019-03-16T23:55:45.681Z,5.10
2019-03-16T23:58:17.031Z,5.10
